Accueil
METAR-TAF:

METAR-TAF

Aéroports :

Cape Dyer, Nunavut, Canada

latitude: 66-35N, longitude: 061-37W, altitude: 393 m

Observation

Le bulletin a été fait il y a 10 minutes, à 12:00 UTC
Vent 3 kt de sud
Température -16°C
Humidité 84%
Pression 1006 hPa

METAR: CWFD 181200Z AUTO 18003KT ////SM NCD M16/M18 A2972

Heure: 08:10 (12:10 UTC)


TAF: absent

Observations et prévisions météorologiques de plus de 4000 aéroports (messages METAR et TAF).

Les stations disponibles sont représentées par des disques jaunes et rouges sur la carte.

Passer la souris dessus pour voir le nom de la station.

Cliquer dessus pour voir les observations et prévisions météorologiques.

Pour changer de carte: cliquez sur les boutons verts avec une croix noire pour zoomer, sur le bouton vert avec un tiret pour effectuer un zoom arrière, ou sur les flèches vertes pour les cartes adjacentes.


METAR-TAF: